In Rescue
 
Open Full Screen Window  High Contrast Mode
September 22, 2020 12:43 AM EDT
Weather Information
Wind Direction
  ---
Wind Speed
  00 kt (0 mph)
Wind Gust
  00 kt (0 mph)
Altimeter
30.39 in
Visibility
10 SM
Temperature
02° C
36° F
Dewpoint
00° C
32° F
Humidity
87%
Sky Condition
Clear
VFR

METAR KCDA 220443Z AUTO 00000KT 10SM CLR 02/00 A3039 RMK AO2 T00230000

FAA Disclaimer: The data displayed is for advisory purposes only and is not to be used for flight planning or operations.